createdAt,value
2023-02-24T00:01:52.275Z,10.10
2023-02-24T00:04:20.728Z,10.10
2023-02-24T00:06:48.043Z,10.20
2023-02-24T00:09:24.558Z,10.20
2023-02-24T00:12:02.994Z,10.10
2023-02-24T00:14:36.560Z,10.10
2023-02-24T00:17:03.608Z,10.10
2023-02-24T00:19:34.535Z,10.10
2023-02-24T00:22:02.551Z,10.10
2023-02-24T00:24:29.763Z,10.00
2023-02-24T00:26:59.460Z,10.00
2023-02-24T00:29:28.928Z,9.90
2023-02-24T00:32:01.070Z,9.90
2023-02-24T00:34:29.837Z,9.90
2023-02-24T00:36:57.139Z,9.90
2023-02-24T00:39:28.461Z,9.90
2023-02-24T00:42:07.017Z,9.90
2023-02-24T00:44:43.689Z,9.90
2023-02-24T00:47:11.586Z,9.90
2023-02-24T00:49:42.160Z,9.90
2023-02-24T00:52:20.337Z,9.90
2023-02-24T00:54:49.165Z,9.90
2023-02-24T00:57:18.325Z,9.90
2023-02-24T00:59:48.173Z,9.80
2023-02-24T01:02:15.719Z,9.80
2023-02-24T01:04:44.195Z,9.70
2023-02-24T01:07:12.940Z,9.70
2023-02-24T01:09:41.988Z,9.70
2023-02-24T01:12:28.884Z,9.60
2023-02-24T01:14:55.588Z,9.60
2023-02-24T01:17:23.143Z,9.50
2023-02-24T01:19:50.425Z,9.50
2023-02-24T01:22:18.901Z,9.50
2023-02-24T01:24:46.133Z,9.50
2023-02-24T01:27:15.165Z,9.50
2023-02-24T01:29:41.873Z,9.50
2023-02-24T01:32:14.755Z,9.50
2023-02-24T01:34:42.471Z,9.40
2023-02-24T01:37:10.019Z,9.40
2023-02-24T01:39:37.208Z,9.30
2023-02-24T01:42:06.149Z,9.30
2023-02-24T01:44:33.214Z,9.20
2023-02-24T01:47:03.947Z,9.30
2023-02-24T01:49:38.153Z,9.30
2023-02-24T01:52:13.287Z,9.30
2023-02-24T01:54:55.079Z,9.40
2023-02-24T01:57:25.063Z,9.40
2023-02-24T01:59:54.630Z,9.40
2023-02-24T02:02:22.921Z,9.40
2023-02-24T02:05:01.540Z,9.40
2023-02-24T02:07:30.646Z,9.40
2023-02-24T02:10:03.952Z,9.40
2023-02-24T02:12:36.935Z,9.40
2023-02-24T02:15:05.348Z,9.40
2023-02-24T02:17:38.480Z,9.40
2023-02-24T02:20:17.531Z,9.40
2023-02-24T02:23:12.699Z,9.40
2023-02-24T02:25:42.068Z,9.40
2023-02-24T02:28:14.793Z,9.30
2023-02-24T02:31:06.105Z,9.40
2023-02-24T02:33:57.150Z,9.30
2023-02-24T02:36:46.337Z,9.40
2023-02-24T02:39:31.873Z,9.40
2023-02-24T02:42:16.376Z,9.40
2023-02-24T02:44:57.008Z,9.40
2023-02-24T02:47:35.580Z,9.40
2023-02-24T02:50:12.918Z,9.40
2023-02-24T02:52:46.985Z,9.40
2023-02-24T02:55:23.760Z,9.30
2023-02-24T02:57:54.182Z,9.30
2023-02-24T03:00:34.931Z,9.30
2023-02-24T03:03:10.478Z,9.50
2023-02-24T03:05:46.938Z,9.50
2023-02-24T03:08:25.814Z,9.50
2023-02-24T03:10:56.717Z,9.60
2023-02-24T03:13:25.696Z,9.50
2023-02-24T03:15:54.709Z,9.50
2023-02-24T03:18:31.896Z,9.60
2023-02-24T03:21:07.953Z,9.50
2023-02-24T03:23:45.270Z,9.40
2023-02-24T03:26:25.485Z,9.50
2023-02-24T03:29:18.590Z,9.50
2023-02-24T03:31:59.380Z,9.60
2023-02-24T03:34:55.472Z,9.60
2023-02-24T03:37:26.558Z,9.70
2023-02-24T03:40:14.400Z,9.80
2023-02-24T03:42:46.126Z,9.90
2023-02-24T03:45:13.589Z,9.80
2023-02-24T03:47:41.532Z,9.80
2023-02-24T03:50:19.665Z,9.80
2023-02-24T03:52:59.647Z,9.90
2023-02-24T03:55:59.535Z,10.00
2023-02-24T03:58:54.093Z,10.00
2023-02-24T04:01:34.670Z,10.10
2023-02-24T04:04:08.023Z,10.00
2023-02-24T04:06:44.101Z,10.10
2023-02-24T04:09:39.012Z,10.10
2023-02-24T04:12:19.706Z,10.10
2023-02-24T04:15:04.801Z,9.90
2023-02-24T04:17:46.194Z,9.80
2023-02-24T04:20:16.954Z,9.70
2023-02-24T04:22:51.520Z,9.60
2023-02-24T04:25:24.456Z,9.50
2023-02-24T04:27:56.623Z,9.40
2023-02-24T04:30:29.716Z,9.30
2023-02-24T04:32:56.594Z,9.20
2023-02-24T04:35:26.711Z,9.10
2023-02-24T04:37:54.709Z,9.10
2023-02-24T04:40:22.726Z,9.00
2023-02-24T04:42:51.736Z,9.00
2023-02-24T04:45:22.018Z,8.90
2023-02-24T04:47:51.149Z,8.80
2023-02-24T04:50:25.925Z,8.70
2023-02-24T04:53:09.231Z,8.70
2023-02-24T04:55:40.072Z,8.60
2023-02-24T04:58:13.027Z,8.60
2023-02-24T05:00:41.584Z,8.50
2023-02-24T05:03:11.421Z,8.60
2023-02-24T05:05:38.327Z,8.50
2023-02-24T05:08:10.248Z,8.50
2023-02-24T05:10:49.361Z,8.50
2023-02-24T05:13:21.784Z,8.50
2023-02-24T05:15:49.603Z,8.50
2023-02-24T05:18:17.350Z,8.50
2023-02-24T05:21:04.938Z,8.50
2023-02-24T05:23:34.329Z,8.50
2023-02-24T05:26:02.726Z,8.50
2023-02-24T05:28:31.561Z,8.50
2023-02-24T05:31:17.092Z,8.60
2023-02-24T05:33:48.020Z,8.60
2023-02-24T05:36:17.589Z,8.60
2023-02-24T05:38:45.823Z,8.60
2023-02-24T05:41:17.764Z,8.60
2023-02-24T05:43:48.142Z,8.60
2023-02-24T05:46:16.207Z,8.60
2023-02-24T05:48:43.987Z,8.60
2023-02-24T05:51:12.469Z,8.50
2023-02-24T05:53:42.551Z,8.50
2023-02-24T05:56:10.422Z,8.50
2023-02-24T05:58:41.280Z,8.50
2023-02-24T06:01:21.728Z,8.50
2023-02-24T06:03:48.603Z,8.50
2023-02-24T06:06:16.754Z,8.40
2023-02-24T06:08:49.900Z,8.40
2023-02-24T06:11:21.132Z,8.30
2023-02-24T06:13:48.070Z,8.30
2023-02-24T06:16:16.695Z,8.30
2023-02-24T06:18:44.261Z,8.30
2023-02-24T06:21:12.560Z,8.30
2023-02-24T06:23:42.152Z,8.20
2023-02-24T06:26:13.053Z,8.20
2023-02-24T06:28:43.102Z,8.20
2023-02-24T06:31:11.052Z,8.20
2023-02-24T06:33:38.550Z,8.30
2023-02-24T06:36:08.265Z,8.40
2023-02-24T06:38:36.625Z,8.40
2023-02-24T06:41:10.644Z,8.40
2023-02-24T06:43:43.202Z,8.40
2023-02-24T06:46:11.910Z,8.40
2023-02-24T06:48:38.770Z,8.40
2023-02-24T06:51:13.560Z,8.50
2023-02-24T06:53:44.133Z,8.50
2023-02-24T06:56:14.936Z,8.50
2023-02-24T06:58:46.369Z,8.50
2023-02-24T07:01:15.431Z,8.50
2023-02-24T07:04:02.582Z,8.50
2023-02-24T07:06:34.697Z,8.60
2023-02-24T07:09:05.258Z,8.60
2023-02-24T07:11:33.795Z,8.60
2023-02-24T07:14:01.054Z,8.60
2023-02-24T07:16:30.724Z,8.50
2023-02-24T07:19:03.083Z,8.40
2023-02-24T07:21:39.329Z,8.40
2023-02-24T07:24:07.324Z,8.40
2023-02-24T07:26:33.987Z,8.40
2023-02-24T07:29:04.429Z,8.40
2023-02-24T07:31:34.298Z,8.40
2023-02-24T07:34:02.040Z,8.40
2023-02-24T07:36:38.750Z,8.40
2023-02-24T07:39:08.045Z,8.30
2023-02-24T07:41:35.265Z,8.30
2023-02-24T07:44:03.302Z,8.40
2023-02-24T07:46:32.392Z,8.40
2023-02-24T07:48:59.762Z,8.40
2023-02-24T07:51:27.796Z,8.40
2023-02-24T07:53:59.907Z,8.50
2023-02-24T07:56:28.627Z,8.50
2023-02-24T07:59:01.997Z,8.50
2023-02-24T08:01:32.265Z,8.50
2023-02-24T08:04:03.273Z,8.60
2023-02-24T08:06:38.142Z,8.50
2023-02-24T08:09:32.808Z,8.50
2023-02-24T08:11:59.444Z,8.40
2023-02-24T08:14:35.358Z,8.40
2023-02-24T08:17:05.409Z,8.40
2023-02-24T08:19:39.447Z,8.40
2023-02-24T08:22:20.147Z,8.40
2023-02-24T08:24:50.079Z,8.40
2023-02-24T08:27:20.058Z,8.30
2023-02-24T08:30:03.864Z,8.40
2023-02-24T08:32:43.575Z,8.30
2023-02-24T08:35:16.320Z,8.40
2023-02-24T08:37:48.566Z,8.50
2023-02-24T08:40:38.766Z,8.60
2023-02-24T08:43:17.118Z,8.60
2023-02-24T08:45:44.772Z,8.50
2023-02-24T08:48:26.317Z,8.50
2023-02-24T08:50:55.255Z,8.40
2023-02-24T08:53:29.561Z,8.40
2023-02-24T08:55:56.345Z,8.40
2023-02-24T08:58:27.010Z,8.50
2023-02-24T09:00:59.230Z,8.50
2023-02-24T09:03:28.197Z,8.60
2023-02-24T09:05:58.879Z,8.60
2023-02-24T09:08:32.524Z,8.60
2023-02-24T09:11:07.773Z,8.60
2023-02-24T09:13:43.009Z,8.60
2023-02-24T09:16:16.542Z,8.60
2023-02-24T09:18:43.760Z,8.60
2023-02-24T09:21:36.228Z,8.60
2023-02-24T09:24:06.984Z,8.70
2023-02-24T09:26:43.089Z,8.70
2023-02-24T09:29:32.439Z,8.60
2023-02-24T09:32:04.812Z,8.70
2023-02-24T09:34:43.882Z,8.70
2023-02-24T09:37:27.917Z,8.70
2023-02-24T09:39:57.559Z,8.80
2023-02-24T09:42:34.062Z,8.90
2023-02-24T09:45:11.440Z,8.90
2023-02-24T09:47:57.518Z,8.90
2023-02-24T09:51:04.329Z,9.00
2023-02-24T09:53:41.320Z,9.10
2023-02-24T09:56:17.586Z,9.10
2023-02-24T09:59:30.472Z,9.10
2023-02-24T10:02:20.321Z,9.10
2023-02-24T10:05:07.668Z,9.10
2023-02-24T10:07:40.319Z,9.20
2023-02-24T10:10:29.256Z,9.20
2023-02-24T10:13:13.651Z,9.30
2023-02-24T10:15:58.892Z,9.30
2023-02-24T10:18:43.306Z,9.30
2023-02-24T10:21:18.491Z,9.30
2023-02-24T10:24:35.681Z,9.30
2023-02-24T10:27:17.423Z,9.40
2023-02-24T10:29:47.036Z,9.60
2023-02-24T10:32:24.253Z,9.70
2023-02-24T10:34:53.171Z,9.80
2023-02-24T10:37:28.681Z,9.90
2023-02-24T10:40:09.510Z,9.80
2023-02-24T10:42:44.452Z,9.70
2023-02-24T10:45:23.882Z,9.70
2023-02-24T10:47:57.574Z,9.60
2023-02-24T10:50:54.880Z,9.50
2023-02-24T10:53:28.640Z,9.50
2023-02-24T10:56:17.152Z,9.40
2023-02-24T10:58:53.473Z,9.40
2023-02-24T11:01:40.942Z,9.40
2023-02-24T11:04:45.583Z,9.30
2023-02-24T11:07:25.188Z,9.40
2023-02-24T11:10:11.418Z,9.50
2023-02-24T11:13:09.176Z,9.50
2023-02-24T11:16:00.315Z,9.60
2023-02-24T11:18:28.989Z,9.60
2023-02-24T11:21:02.192Z,9.60
2023-02-24T11:23:35.654Z,9.70
2023-02-24T11:26:16.538Z,9.70
2023-02-24T11:28:49.690Z,9.70
2023-02-24T11:31:42.936Z,9.70
2023-02-24T11:34:30.845Z,9.60
2023-02-24T11:37:02.746Z,9.50
2023-02-24T11:39:57.120Z,9.50
2023-02-24T11:42:31.097Z,9.60
2023-02-24T11:45:25.059Z,9.60
2023-02-24T11:48:04.669Z,9.60
2023-02-24T11:50:51.977Z,9.60
2023-02-24T11:53:27.174Z,9.50
2023-02-24T11:56:11.897Z,9.60
2023-02-24T11:59:01.246Z,9.70
2023-02-24T12:01:35.478Z,9.70
2023-02-24T12:04:11.037Z,9.80
2023-02-24T12:06:59.683Z,9.80
2023-02-24T12:09:35.946Z,9.80
2023-02-24T12:12:13.591Z,9.80
2023-02-24T12:14:43.337Z,9.80
2023-02-24T12:17:27.359Z,9.70
2023-02-24T12:20:06.099Z,9.60
2023-02-24T12:22:45.911Z,9.70
2023-02-24T12:25:14.930Z,9.70
2023-02-24T12:28:11.148Z,9.70
2023-02-24T12:30:50.047Z,9.80
2023-02-24T12:33:42.787Z,9.90
2023-02-24T12:36:21.607Z,10.00
2023-02-24T12:39:12.198Z,9.90
2023-02-24T12:42:03.516Z,9.90
2023-02-24T12:45:11.428Z,9.90
2023-02-24T12:47:53.166Z,9.90
2023-02-24T12:50:40.006Z,9.90
2023-02-24T12:53:19.650Z,9.80
2023-02-24T12:56:19.891Z,9.80
2023-02-24T12:58:50.780Z,9.90
2023-02-24T13:01:43.435Z,9.80
2023-02-24T13:04:37.960Z,9.80
2023-02-24T13:07:46.163Z,9.90
2023-02-24T13:10:42.264Z,9.90
2023-02-24T13:13:20.000Z,9.80
2023-02-24T13:15:55.508Z,9.80
2023-02-24T13:18:39.465Z,9.80
2023-02-24T13:21:19.343Z,9.90
2023-02-24T13:23:57.975Z,9.90
2023-02-24T13:26:26.981Z,9.90
2023-02-24T13:29:10.133Z,9.90
2023-02-24T13:31:51.750Z,9.80
2023-02-24T13:34:44.393Z,9.80
2023-02-24T13:37:11.404Z,9.70
2023-02-24T13:39:44.245Z,9.60
2023-02-24T13:42:20.114Z,9.70
2023-02-24T13:44:59.762Z,9.70
2023-02-24T13:47:41.503Z,9.70
2023-02-24T13:50:25.371Z,9.70
2023-02-24T13:53:36.506Z,9.70
2023-02-24T13:56:09.779Z,9.80
2023-02-24T13:58:43.639Z,9.80
2023-02-24T14:01:14.033Z,9.80
2023-02-24T14:03:44.012Z,9.80
2023-02-24T14:06:25.230Z,9.80
2023-02-24T14:09:00.932Z,9.90
2023-02-24T14:11:33.327Z,9.90
2023-02-24T14:14:00.299Z,9.90
2023-02-24T14:16:32.517Z,10.00
2023-02-24T14:19:05.889Z,10.00
2023-02-24T14:21:34.020Z,10.00
2023-02-24T14:24:14.359Z,9.90
2023-02-24T14:26:49.619Z,10.00
2023-02-24T14:29:23.683Z,9.90
2023-02-24T14:31:53.346Z,9.90
2023-02-24T14:34:23.562Z,10.00
2023-02-24T14:36:54.542Z,10.00
2023-02-24T14:39:24.365Z,9.90
2023-02-24T14:42:03.269Z,9.90
2023-02-24T14:44:30.277Z,9.90
2023-02-24T14:46:59.851Z,9.90
2023-02-24T14:49:30.280Z,9.90
2023-02-24T14:52:09.221Z,9.90
2023-02-24T14:55:01.996Z,9.90
2023-02-24T14:57:33.509Z,10.00
2023-02-24T15:00:11.696Z,10.00
2023-02-24T15:02:43.794Z,10.00
2023-02-24T15:05:11.942Z,10.00
2023-02-24T15:07:39.776Z,10.00
2023-02-24T15:10:17.363Z,10.00
2023-02-24T15:12:52.237Z,9.90
2023-02-24T15:15:34.553Z,10.00
2023-02-24T15:18:09.787Z,9.90
2023-02-24T15:20:39.645Z,9.90
2023-02-24T15:23:24.418Z,9.90
2023-02-24T15:25:51.883Z,9.90
2023-02-24T15:28:33.122Z,10.00
2023-02-24T15:31:04.818Z,10.00
2023-02-24T15:33:40.754Z,9.90
2023-02-24T15:36:14.122Z,9.90
2023-02-24T15:38:43.507Z,9.90
2023-02-24T15:41:12.675Z,9.90
2023-02-24T15:43:52.975Z,9.90
2023-02-24T15:46:30.361Z,9.90
2023-02-24T15:48:58.247Z,9.90
2023-02-24T15:51:28.000Z,9.80
2023-02-24T15:53:55.078Z,9.80
2023-02-24T15:56:22.000Z,9.70
2023-02-24T15:58:49.058Z,9.70
2023-02-24T16:01:15.803Z,9.70
2023-02-24T16:03:43.085Z,9.60
2023-02-24T16:06:20.159Z,9.60
2023-02-24T16:08:52.700Z,9.60
2023-02-24T16:11:23.562Z,9.70
2023-02-24T16:13:56.968Z,9.70
2023-02-24T16:16:25.035Z,9.70
2023-02-24T16:18:52.267Z,9.60
2023-02-24T16:21:20.156Z,9.60
2023-02-24T16:23:47.001Z,9.50
2023-02-24T16:26:23.384Z,9.50
2023-02-24T16:28:54.991Z,9.50
2023-02-24T16:31:24.778Z,9.50
2023-02-24T16:33:55.324Z,9.50
2023-02-24T16:36:24.177Z,9.50
2023-02-24T16:38:51.635Z,9.40
2023-02-24T16:41:18.298Z,9.50
2023-02-24T16:43:44.955Z,9.40
2023-02-24T16:46:17.723Z,9.40
2023-02-24T16:48:50.136Z,9.40
2023-02-24T16:51:16.855Z,9.40
2023-02-24T16:53:43.929Z,9.40
2023-02-24T16:56:12.325Z,9.40
2023-02-24T16:58:38.943Z,9.30
2023-02-24T17:01:06.270Z,9.30
2023-02-24T17:03:44.816Z,9.30
2023-02-24T17:06:11.685Z,9.30
2023-02-24T17:08:38.706Z,9.30
2023-02-24T17:11:06.059Z,9.30
2023-02-24T17:13:32.831Z,9.30
2023-02-24T17:15:59.585Z,9.30
2023-02-24T17:18:26.789Z,9.30
2023-02-24T17:20:53.553Z,9.20
2023-02-24T17:23:20.628Z,9.20
2023-02-24T17:25:53.714Z,9.20
2023-02-24T17:28:20.737Z,9.20
2023-02-24T17:30:47.718Z,9.20
2023-02-24T17:33:14.617Z,9.20
2023-02-24T17:35:47.002Z,9.20
2023-02-24T17:38:15.374Z,9.10
2023-02-24T17:40:43.742Z,9.10
2023-02-24T17:43:11.317Z,9.10
2023-02-24T17:45:44.392Z,9.10
2023-02-24T17:48:13.170Z,9.00
2023-02-24T17:50:45.139Z,8.90
2023-02-24T17:53:15.823Z,8.90
2023-02-24T17:55:59.942Z,8.90
2023-02-24T17:58:28.496Z,8.80
2023-02-24T18:00:55.175Z,8.80
2023-02-24T18:03:21.977Z,8.70
2023-02-24T18:05:48.610Z,8.80
2023-02-24T18:08:15.684Z,8.80
2023-02-24T18:10:42.413Z,8.80
2023-02-24T18:13:09.163Z,8.80
2023-02-24T18:15:38.810Z,8.70
2023-02-24T18:18:05.497Z,8.70
2023-02-24T18:20:32.236Z,8.70
2023-02-24T18:22:58.979Z,8.60
2023-02-24T18:25:25.754Z,8.70
2023-02-24T18:27:52.360Z,8.60
2023-02-24T18:30:19.560Z,8.70
2023-02-24T18:32:47.237Z,8.60
2023-02-24T18:35:15.798Z,8.60
2023-02-24T18:37:42.752Z,8.50
2023-02-24T18:40:10.234Z,8.50
2023-02-24T18:42:37.640Z,8.50
2023-02-24T18:45:04.640Z,8.50
2023-02-24T18:47:31.279Z,8.40
2023-02-24T18:49:57.976Z,8.40
2023-02-24T18:52:24.670Z,8.40
2023-02-24T18:54:52.975Z,8.40
2023-02-24T18:57:19.680Z,8.40
2023-02-24T18:59:50.050Z,8.30
2023-02-24T19:02:16.960Z,8.30
2023-02-24T19:04:45.773Z,8.30
2023-02-24T19:07:13.538Z,8.30
2023-02-24T19:09:41.732Z,8.30
2023-02-24T19:12:09.161Z,8.30
2023-02-24T19:14:37.254Z,8.20
2023-02-24T19:17:04.047Z,8.10
2023-02-24T19:19:30.755Z,8.10
2023-02-24T19:21:58.018Z,8.10
2023-02-24T19:24:24.680Z,8.00
2023-02-24T19:26:53.718Z,7.90
2023-02-24T19:29:22.050Z,7.80
2023-02-24T19:31:54.044Z,7.60
2023-02-24T19:34:21.090Z,7.50
2023-02-24T19:36:47.925Z,7.40
2023-02-24T19:39:16.107Z,7.20
2023-02-24T19:41:42.969Z,7.20
2023-02-24T19:44:10.276Z,6.80
2023-02-24T19:46:37.106Z,6.70
2023-02-24T19:49:04.469Z,6.60
2023-02-24T19:51:31.645Z,6.50
2023-02-24T19:54:03.164Z,6.30
2023-02-24T19:56:34.928Z,6.10
2023-02-24T19:59:03.376Z,6.00
2023-02-24T20:01:30.836Z,6.00
2023-02-24T20:04:02.884Z,5.80
2023-02-24T20:06:35.706Z,5.70
2023-02-24T20:09:06.243Z,5.60
2023-02-24T20:11:35.788Z,5.50
2023-02-24T20:14:02.641Z,5.40
2023-02-24T20:16:32.518Z,5.30
2023-02-24T20:19:00.085Z,5.30
2023-02-24T20:21:27.224Z,5.30
2023-02-24T20:23:53.935Z,5.10
2023-02-24T20:26:21.224Z,4.80
2023-02-24T20:28:48.186Z,4.70
2023-02-24T20:31:19.093Z,4.50
2023-02-24T20:33:47.300Z,4.40
2023-02-24T20:36:18.074Z,4.30
2023-02-24T20:38:45.257Z,4.20
2023-02-24T20:41:12.304Z,4.20
2023-02-24T20:43:39.297Z,4.10
2023-02-24T20:46:28.190Z,4.10
2023-02-24T20:49:00.605Z,3.90
2023-02-24T20:51:29.360Z,3.90
2023-02-24T20:53:58.556Z,3.90
2023-02-24T20:56:27.551Z,3.90
2023-02-24T20:58:59.891Z,3.90
2023-02-24T21:01:27.845Z,4.00
2023-02-24T21:03:54.624Z,4.00
2023-02-24T21:06:21.583Z,4.00
2023-02-24T21:08:48.342Z,4.00
2023-02-24T21:11:15.353Z,3.90
2023-02-24T21:13:47.167Z,3.80
2023-02-24T21:16:18.555Z,3.80
2023-02-24T21:18:47.026Z,3.80
2023-02-24T21:21:15.297Z,3.80
2023-02-24T21:23:43.515Z,3.70
2023-02-24T21:26:10.655Z,3.80
2023-02-24T21:28:38.375Z,3.80
2023-02-24T21:31:09.885Z,3.80
2023-02-24T21:33:38.937Z,3.80
2023-02-24T21:36:11.777Z,3.80
2023-02-24T21:38:38.848Z,3.70
2023-02-24T21:41:07.446Z,3.70
2023-02-24T21:43:34.469Z,3.70
2023-02-24T21:46:05.695Z,3.80
2023-02-24T21:48:33.564Z,3.70
2023-02-24T21:51:03.900Z,3.70
2023-02-24T21:53:37.969Z,3.70
2023-02-24T21:56:16.211Z,3.70
2023-02-24T21:58:48.932Z,3.70
2023-02-24T22:01:18.446Z,3.70
2023-02-24T22:03:45.404Z,3.70
2023-02-24T22:06:14.477Z,3.70
2023-02-24T22:08:45.248Z,3.70
2023-02-24T22:11:14.320Z,3.70
2023-02-24T22:13:41.971Z,3.60
2023-02-24T22:16:11.726Z,3.50
2023-02-24T22:18:39.177Z,3.50
2023-02-24T22:21:08.149Z,3.40
2023-02-24T22:23:35.221Z,3.40
2023-02-24T22:26:07.329Z,3.40
2023-02-24T22:28:35.910Z,3.40
2023-02-24T22:31:02.903Z,3.40
2023-02-24T22:33:30.723Z,3.30
2023-02-24T22:36:05.289Z,3.50
2023-02-24T22:38:37.008Z,3.30
2023-02-24T22:41:07.546Z,3.30
2023-02-24T22:43:34.978Z,3.30
2023-02-24T22:46:07.941Z,3.30
2023-02-24T22:48:36.892Z,3.30
2023-02-24T22:51:06.251Z,3.30
2023-02-24T22:53:35.122Z,3.40
2023-02-24T22:56:02.120Z,3.40
2023-02-24T22:58:29.382Z,3.40
2023-02-24T23:00:56.443Z,3.60
2023-02-24T23:03:26.407Z,3.40
2023-02-24T23:06:03.364Z,3.40
2023-02-24T23:08:33.405Z,3.40
2023-02-24T23:11:11.758Z,3.30
2023-02-24T23:13:42.153Z,3.30
2023-02-24T23:16:11.571Z,3.40
2023-02-24T23:18:38.396Z,3.40
2023-02-24T23:21:08.823Z,3.40
2023-02-24T23:23:37.202Z,3.50
2023-02-24T23:26:05.315Z,3.60
2023-02-24T23:28:32.223Z,3.60
2023-02-24T23:30:59.252Z,3.70
2023-02-24T23:33:26.290Z,3.70
2023-02-24T23:35:53.038Z,3.70
2023-02-24T23:38:21.812Z,3.80
2023-02-24T23:40:50.628Z,3.80
2023-02-24T23:43:18.077Z,3.90
2023-02-24T23:45:44.862Z,3.90
2023-02-24T23:48:13.696Z,3.90
2023-02-24T23:50:42.729Z,3.90
2023-02-24T23:53:10.235Z,4.00
2023-02-24T23:55:40.736Z,4.00
2023-02-24T23:58:07.827Z,4.00
